sensor_id;sensor_type;location;lat;lon;timestamp;temperature;humidity
7972;DHT22;4031;49.758;6.120;2023-05-18T00:02:03;4.30;99.90
7972;DHT22;4031;49.758;6.120;2023-05-18T00:04:33;4.20;99.90
7972;DHT22;4031;49.758;6.120;2023-05-18T00:07:00;4.10;99.90
7972;DHT22;4031;49.758;6.120;2023-05-18T00:09:30;4.10;99.90
7972;DHT22;4031;49.758;6.120;2023-05-18T00:11:58;4.20;99.90
7972;DHT22;4031;49.758;6.120;2023-05-18T00:14:24;4.00;99.90
7972;DHT22;4031;49.758;6.120;2023-05-18T00:16:50;3.90;99.90
7972;DHT22;4031;49.758;6.120;2023-05-18T00:19:21;3.90;99.90
7972;DHT22;4031;49.758;6.120;2023-05-18T00:21:48;3.90;99.90
7972;DHT22;4031;49.758;6.120;2023-05-18T00:24:16;3.90;99.90
7972;DHT22;4031;49.758;6.120;2023-05-18T00:26:44;3.90;99.90
7972;DHT22;4031;49.758;6.120;2023-05-18T00:29:11;3.90;99.90
7972;DHT22;4031;49.758;6.120;2023-05-18T00:31:38;3.90;99.90
7972;DHT22;4031;49.758;6.120;2023-05-18T00:34:04;3.90;99.90
7972;DHT22;4031;49.758;6.120;2023-05-18T00:36:31;3.80;99.90
7972;DHT22;4031;49.758;6.120;2023-05-18T00:38:57;3.70;99.90
7972;DHT22;4031;49.758;6.120;2023-05-18T00:41:24;3.70;99.90
7972;DHT22;4031;49.758;6.120;2023-05-18T00:43:54;3.60;99.90
7972;DHT22;4031;49.758;6.120;2023-05-18T00:46:24;3.60;99.90
7972;DHT22;4031;49.758;6.120;2023-05-18T00:48:53;3.60;99.90
7972;DHT22;4031;49.758;6.120;2023-05-18T00:51:22;3.60;99.90
7972;DHT22;4031;49.758;6.120;2023-05-18T00:53:50;3.60;99.90
7972;DHT22;4031;49.758;6.120;2023-05-18T00:56:18;3.60;99.90
7972;DHT22;4031;49.758;6.120;2023-05-18T00:58:45;3.60;99.90
7972;DHT22;4031;49.758;6.120;2023-05-18T01:01:12;3.50;99.90
7972;DHT22;4031;49.758;6.120;2023-05-18T01:03:38;3.40;99.90
7972;DHT22;4031;49.758;6.120;2023-05-18T01:06:04;3.30;99.90
7972;DHT22;4031;49.758;6.120;2023-05-18T01:08:31;3.20;99.90
7972;DHT22;4031;49.758;6.120;2023-05-18T01:11:13;3.20;99.90
7972;DHT22;4031;49.758;6.120;2023-05-18T01:17:04;3.10;99.90
7972;DHT22;4031;49.758;6.120;2023-05-18T01:19:44;3.10;99.90
7972;DHT22;4031;49.758;6.120;2023-05-18T01:28:31;3.00;99.90
7972;DHT22;4031;49.758;6.120;2023-05-18T01:30:58;3.00;99.90
7972;DHT22;4031;49.758;6.120;2023-05-18T01:33:25;2.90;99.90
7972;DHT22;4031;49.758;6.120;2023-05-18T01:35:51;2.90;99.90
7972;DHT22;4031;49.758;6.120;2023-05-18T01:38:18;2.90;99.90
7972;DHT22;4031;49.758;6.120;2023-05-18T01:41:02;2.90;99.90
7972;DHT22;4031;49.758;6.120;2023-05-18T01:43:35;2.80;99.90
7972;DHT22;4031;49.758;6.120;2023-05-18T01:49:53;2.90;99.90
7972;DHT22;4031;49.758;6.120;2023-05-18T01:52:50;2.80;99.90
7972;DHT22;4031;49.758;6.120;2023-05-18T01:55:18;2.80;99.90
7972;DHT22;4031;49.758;6.120;2023-05-18T01:57:47;2.80;99.90
7972;DHT22;4031;49.758;6.120;2023-05-18T02:00:15;2.70;99.90
7972;DHT22;4031;49.758;6.120;2023-05-18T02:02:42;2.70;99.90
7972;DHT22;4031;49.758;6.120;2023-05-18T02:05:08;2.70;99.90
7972;DHT22;4031;49.758;6.120;2023-05-18T02:07:37;2.70;99.90
7972;DHT22;4031;49.758;6.120;2023-05-18T02:10:07;2.70;99.90
7972;DHT22;4031;49.758;6.120;2023-05-18T02:12:33;2.70;99.90
7972;DHT22;4031;49.758;6.120;2023-05-18T02:14:59;2.80;99.90
7972;DHT22;4031;49.758;6.120;2023-05-18T02:17:32;2.80;99.90
7972;DHT22;4031;49.758;6.120;2023-05-18T02:20:02;2.80;99.90
7972;DHT22;4031;49.758;6.120;2023-05-18T02:22:32;2.80;99.90
7972;DHT22;4031;49.758;6.120;2023-05-18T02:24:59;2.80;99.90
7972;DHT22;4031;49.758;6.120;2023-05-18T02:27:24;2.80;99.90
7972;DHT22;4031;49.758;6.120;2023-05-18T02:29:51;2.80;99.90
7972;DHT22;4031;49.758;6.120;2023-05-18T02:32:17;2.70;99.90
7972;DHT22;4031;49.758;6.120;2023-05-18T02:34:43;2.60;99.90
7972;DHT22;4031;49.758;6.120;2023-05-18T02:37:10;2.60;99.90
7972;DHT22;4031;49.758;6.120;2023-05-18T02:39:38;2.60;99.90
7972;DHT22;4031;49.758;6.120;2023-05-18T02:42:04;2.50;99.90
7972;DHT22;4031;49.758;6.120;2023-05-18T02:44:30;2.50;99.90
7972;DHT22;4031;49.758;6.120;2023-05-18T02:46:56;2.50;99.90
7972;DHT22;4031;49.758;6.120;2023-05-18T02:49:22;2.50;99.90
7972;DHT22;4031;49.758;6.120;2023-05-18T02:51:47;2.50;99.90
7972;DHT22;4031;49.758;6.120;2023-05-18T02:54:13;2.40;99.90
7972;DHT22;4031;49.758;6.120;2023-05-18T02:56:39;2.40;99.90
7972;DHT22;4031;49.758;6.120;2023-05-18T02:59:06;2.40;99.90
7972;DHT22;4031;49.758;6.120;2023-05-18T03:01:32;2.40;99.90
7972;DHT22;4031;49.758;6.120;2023-05-18T03:03:59;2.40;99.90
7972;DHT22;4031;49.758;6.120;2023-05-18T03:06:25;2.40;99.90
7972;DHT22;4031;49.758;6.120;2023-05-18T03:08:52;2.40;99.90
7972;DHT22;4031;49.758;6.120;2023-05-18T03:11:24;2.30;99.90
7972;DHT22;4031;49.758;6.120;2023-05-18T03:13:53;2.30;99.90
7972;DHT22;4031;49.758;6.120;2023-05-18T03:16:19;2.40;99.90
7972;DHT22;4031;49.758;6.120;2023-05-18T03:18:44;2.30;99.90
7972;DHT22;4031;49.758;6.120;2023-05-18T03:21:11;2.30;99.90
7972;DHT22;4031;49.758;6.120;2023-05-18T03:23:38;2.20;99.90
7972;DHT22;4031;49.758;6.120;2023-05-18T03:26:03;2.20;99.90
7972;DHT22;4031;49.758;6.120;2023-05-18T03:28:35;2.20;99.90
7972;DHT22;4031;49.758;6.120;2023-05-18T03:31:02;2.20;99.90
7972;DHT22;4031;49.758;6.120;2023-05-18T03:33:28;2.20;99.90
7972;DHT22;4031;49.758;6.120;2023-05-18T03:35:53;2.10;99.90
7972;DHT22;4031;49.758;6.120;2023-05-18T03:38:19;2.10;99.90
7972;DHT22;4031;49.758;6.120;2023-05-18T03:40:45;2.10;99.90
7972;DHT22;4031;49.758;6.120;2023-05-18T03:43:11;2.10;99.90
7972;DHT22;4031;49.758;6.120;2023-05-18T03:45:36;2.10;99.90
7972;DHT22;4031;49.758;6.120;2023-05-18T03:48:02;2.10;99.90
7972;DHT22;4031;49.758;6.120;2023-05-18T03:50:28;2.10;99.90
7972;DHT22;4031;49.758;6.120;2023-05-18T03:52:53;2.00;99.90
7972;DHT22;4031;49.758;6.120;2023-05-18T03:55:20;2.00;99.90
7972;DHT22;4031;49.758;6.120;2023-05-18T03:57:47;1.90;99.90
7972;DHT22;4031;49.758;6.120;2023-05-18T04:00:13;2.10;99.90
7972;DHT22;4031;49.758;6.120;2023-05-18T04:02:40;2.10;99.90
7972;DHT22;4031;49.758;6.120;2023-05-18T04:05:06;2.10;99.90
7972;DHT22;4031;49.758;6.120;2023-05-18T04:07:32;2.10;99.90
7972;DHT22;4031;49.758;6.120;2023-05-18T04:09:58;2.10;99.90
7972;DHT22;4031;49.758;6.120;2023-05-18T04:12:23;2.20;99.90
7972;DHT22;4031;49.758;6.120;2023-05-18T04:14:49;2.20;99.90
7972;DHT22;4031;49.758;6.120;2023-05-18T04:17:19;2.20;99.90
7972;DHT22;4031;49.758;6.120;2023-05-18T04:19:48;2.30;99.90
7972;DHT22;4031;49.758;6.120;2023-05-18T04:22:15;2.30;99.90
7972;DHT22;4031;49.758;6.120;2023-05-18T04:24:41;2.30;99.90
7972;DHT22;4031;49.758;6.120;2023-05-18T04:27:10;2.40;99.90
7972;DHT22;4031;49.758;6.120;2023-05-18T04:29:36;2.40;99.90
7972;DHT22;4031;49.758;6.120;2023-05-18T04:32:05;2.50;99.90
7972;DHT22;4031;49.758;6.120;2023-05-18T04:34:32;2.50;99.90
7972;DHT22;4031;49.758;6.120;2023-05-18T04:37:00;2.60;99.90
7972;DHT22;4031;49.758;6.120;2023-05-18T04:39:27;2.60;99.90
7972;DHT22;4031;49.758;6.120;2023-05-18T04:41:53;2.70;99.90
7972;DHT22;4031;49.758;6.120;2023-05-18T04:44:28;2.70;99.90
7972;DHT22;4031;49.758;6.120;2023-05-18T04:46:56;2.80;99.90
7972;DHT22;4031;49.758;6.120;2023-05-18T04:49:22;2.90;99.90
7972;DHT22;4031;49.758;6.120;2023-05-18T04:51:49;3.00;99.90
7972;DHT22;4031;49.758;6.120;2023-05-18T04:54:15;3.00;99.90
7972;DHT22;4031;49.758;6.120;2023-05-18T04:56:41;3.10;99.90
7972;DHT22;4031;49.758;6.120;2023-05-18T04:59:10;3.20;99.90
7972;DHT22;4031;49.758;6.120;2023-05-18T05:01:35;3.20;99.90
7972;DHT22;4031;49.758;6.120;2023-05-18T05:04:01;3.30;99.90
7972;DHT22;4031;49.758;6.120;2023-05-18T05:06:28;3.40;99.90
7972;DHT22;4031;49.758;6.120;2023-05-18T05:08:53;3.50;99.90
7972;DHT22;4031;49.758;6.120;2023-05-18T05:11:19;3.60;99.90
7972;DHT22;4031;49.758;6.120;2023-05-18T05:13:45;3.80;99.90
7972;DHT22;4031;49.758;6.120;2023-05-18T05:16:11;3.90;99.90
7972;DHT22;4031;49.758;6.120;2023-05-18T05:18:37;4.00;99.90
7972;DHT22;4031;49.758;6.120;2023-05-18T05:21:02;4.10;99.90
7972;DHT22;4031;49.758;6.120;2023-05-18T05:23:28;4.20;99.90
7972;DHT22;4031;49.758;6.120;2023-05-18T05:25:54;4.30;99.90
7972;DHT22;4031;49.758;6.120;2023-05-18T05:28:20;4.40;99.90
7972;DHT22;4031;49.758;6.120;2023-05-18T05:30:45;4.50;99.90
7972;DHT22;4031;49.758;6.120;2023-05-18T05:33:11;4.60;99.90
7972;DHT22;4031;49.758;6.120;2023-05-18T05:35:37;4.70;99.90
7972;DHT22;4031;49.758;6.120;2023-05-18T05:38:02;4.90;99.90
7972;DHT22;4031;49.758;6.120;2023-05-18T05:40:28;5.00;99.90
7972;DHT22;4031;49.758;6.120;2023-05-18T05:42:54;5.20;99.90
7972;DHT22;4031;49.758;6.120;2023-05-18T05:45:19;5.40;99.90
7972;DHT22;4031;49.758;6.120;2023-05-18T05:47:45;5.60;99.90
7972;DHT22;4031;49.758;6.120;2023-05-18T05:50:11;5.80;99.90
7972;DHT22;4031;49.758;6.120;2023-05-18T05:52:36;6.10;99.90
7972;DHT22;4031;49.758;6.120;2023-05-18T05:55:02;6.40;99.90
7972;DHT22;4031;49.758;6.120;2023-05-18T05:57:28;6.60;99.90
7972;DHT22;4031;49.758;6.120;2023-05-18T05:59:54;6.90;99.90
7972;DHT22;4031;49.758;6.120;2023-05-18T06:02:20;7.20;99.90
7972;DHT22;4031;49.758;6.120;2023-05-18T06:04:45;7.50;99.90
7972;DHT22;4031;49.758;6.120;2023-05-18T06:07:11;7.90;99.90
7972;DHT22;4031;49.758;6.120;2023-05-18T06:09:37;8.50;99.90
7972;DHT22;4031;49.758;6.120;2023-05-18T06:12:03;8.90;99.90
7972;DHT22;4031;49.758;6.120;2023-05-18T06:14:29;9.30;99.90
7972;DHT22;4031;49.758;6.120;2023-05-18T06:16:55;9.70;99.90
7972;DHT22;4031;49.758;6.120;2023-05-18T06:19:21;10.20;99.90
7972;DHT22;4031;49.758;6.120;2023-05-18T06:21:46;11.10;99.90
7972;DHT22;4031;49.758;6.120;2023-05-18T06:24:12;11.70;99.90
7972;DHT22;4031;49.758;6.120;2023-05-18T06:26:38;12.50;99.90
7972;DHT22;4031;49.758;6.120;2023-05-18T06:29:03;13.60;99.90
7972;DHT22;4031;49.758;6.120;2023-05-18T06:31:30;14.40;99.90
7972;DHT22;4031;49.758;6.120;2023-05-18T06:33:55;15.00;99.90
7972;DHT22;4031;49.758;6.120;2023-05-18T06:36:21;15.70;99.90
7972;DHT22;4031;49.758;6.120;2023-05-18T06:38:47;15.90;99.90
7972;DHT22;4031;49.758;6.120;2023-05-18T06:41:12;16.50;99.90
7972;DHT22;4031;49.758;6.120;2023-05-18T06:43:38;17.20;99.90
7972;DHT22;4031;49.758;6.120;2023-05-18T06:46:04;17.60;99.90
7972;DHT22;4031;49.758;6.120;2023-05-18T06:48:30;18.00;99.90
7972;DHT22;4031;49.758;6.120;2023-05-18T06:50:55;18.30;99.90
7972;DHT22;4031;49.758;6.120;2023-05-18T06:53:21;18.90;99.90
7972;DHT22;4031;49.758;6.120;2023-05-18T06:55:47;19.20;99.90
7972;DHT22;4031;49.758;6.120;2023-05-18T06:58:13;19.30;99.90
7972;DHT22;4031;49.758;6.120;2023-05-18T07:00:39;19.20;99.90
7972;DHT22;4031;49.758;6.120;2023-05-18T07:03:04;19.70;99.90
7972;DHT22;4031;49.758;6.120;2023-05-18T07:05:30;20.20;99.90
7972;DHT22;4031;49.758;6.120;2023-05-18T07:07:56;20.40;99.90
7972;DHT22;4031;49.758;6.120;2023-05-18T07:10:22;20.60;99.90
7972;DHT22;4031;49.758;6.120;2023-05-18T07:12:48;21.00;99.90
7972;DHT22;4031;49.758;6.120;2023-05-18T07:15:14;21.10;99.90
7972;DHT22;4031;49.758;6.120;2023-05-18T07:17:40;21.40;99.90
7972;DHT22;4031;49.758;6.120;2023-05-18T07:20:07;21.40;99.90
7972;DHT22;4031;49.758;6.120;2023-05-18T07:22:33;21.50;99.90
7972;DHT22;4031;49.758;6.120;2023-05-18T07:24:59;21.40;99.90
7972;DHT22;4031;49.758;6.120;2023-05-18T07:27:26;21.50;99.90
7972;DHT22;4031;49.758;6.120;2023-05-18T07:29:52;21.90;99.90
7972;DHT22;4031;49.758;6.120;2023-05-18T07:32:18;22.00;99.90
7972;DHT22;4031;49.758;6.120;2023-05-18T07:34:43;21.90;99.90
7972;DHT22;4031;49.758;6.120;2023-05-18T07:37:11;21.50;99.90
7972;DHT22;4031;49.758;6.120;2023-05-18T07:39:37;21.60;99.90
7972;DHT22;4031;49.758;6.120;2023-05-18T07:42:03;21.80;99.90
7972;DHT22;4031;49.758;6.120;2023-05-18T07:44:29;21.90;99.90
7972;DHT22;4031;49.758;6.120;2023-05-18T07:46:55;22.50;99.90
7972;DHT22;4031;49.758;6.120;2023-05-18T07:49:21;22.70;99.90
7972;DHT22;4031;49.758;6.120;2023-05-18T07:51:50;23.10;99.90
7972;DHT22;4031;49.758;6.120;2023-05-18T07:54:16;23.40;99.90
7972;DHT22;4031;49.758;6.120;2023-05-18T07:56:42;23.00;99.90
7972;DHT22;4031;49.758;6.120;2023-05-18T07:59:08;23.00;99.90
7972;DHT22;4031;49.758;6.120;2023-05-18T08:01:35;23.00;99.90
7972;DHT22;4031;49.758;6.120;2023-05-18T08:04:02;23.60;99.90
7972;DHT22;4031;49.758;6.120;2023-05-18T08:06:28;24.10;99.90
7972;DHT22;4031;49.758;6.120;2023-05-18T08:08:54;24.30;99.40
7972;DHT22;4031;49.758;6.120;2023-05-18T08:11:21;24.20;97.60
7972;DHT22;4031;49.758;6.120;2023-05-18T08:13:47;24.50;95.40
7972;DHT22;4031;49.758;6.120;2023-05-18T08:16:13;24.70;96.70
7972;DHT22;4031;49.758;6.120;2023-05-18T08:18:39;25.50;98.00
7972;DHT22;4031;49.758;6.120;2023-05-18T08:21:05;25.80;94.10
7972;DHT22;4031;49.758;6.120;2023-05-18T08:23:34;25.40;91.30
7972;DHT22;4031;49.758;6.120;2023-05-18T08:26:00;25.20;90.20
7972;DHT22;4031;49.758;6.120;2023-05-18T08:28:28;25.00;90.20
7972;DHT22;4031;49.758;6.120;2023-05-18T08:30:54;25.00;88.60
7972;DHT22;4031;49.758;6.120;2023-05-18T08:33:20;25.10;88.00
7972;DHT22;4031;49.758;6.120;2023-05-18T08:35:46;25.20;87.70
7972;DHT22;4031;49.758;6.120;2023-05-18T08:38:11;25.00;85.20
7972;DHT22;4031;49.758;6.120;2023-05-18T08:40:52;25.10;80.90
7972;DHT22;4031;49.758;6.120;2023-05-18T08:43:24;24.90;80.10
7972;DHT22;4031;49.758;6.120;2023-05-18T08:46:04;24.50;82.20
7972;DHT22;4031;49.758;6.120;2023-05-18T08:48:35;24.60;76.00
7972;DHT22;4031;49.758;6.120;2023-05-18T08:51:02;24.40;77.40
7972;DHT22;4031;49.758;6.120;2023-05-18T08:53:32;24.60;75.30
7972;DHT22;4031;49.758;6.120;2023-05-18T08:55:59;24.80;77.80
7972;DHT22;4031;49.758;6.120;2023-05-18T08:58:39;24.70;74.60
7972;DHT22;4031;49.758;6.120;2023-05-18T09:01:08;24.60;75.40
7972;DHT22;4031;49.758;6.120;2023-05-18T09:03:36;25.30;73.80
7972;DHT22;4031;49.758;6.120;2023-05-18T09:06:02;25.00;73.60
7972;DHT22;4031;49.758;6.120;2023-05-18T09:08:29;25.40;74.60
7972;DHT22;4031;49.758;6.120;2023-05-18T09:10:56;25.90;72.10
7972;DHT22;4031;49.758;6.120;2023-05-18T09:13:23;25.90;68.80
7972;DHT22;4031;49.758;6.120;2023-05-18T09:15:48;26.30;70.10
7972;DHT22;4031;49.758;6.120;2023-05-18T09:18:15;26.60;68.50
7972;DHT22;4031;49.758;6.120;2023-05-18T09:20:41;26.70;68.50
7972;DHT22;4031;49.758;6.120;2023-05-18T09:23:07;26.30;62.60
7972;DHT22;4031;49.758;6.120;2023-05-18T09:25:32;26.10;62.60
7972;DHT22;4031;49.758;6.120;2023-05-18T09:28:01;25.90;62.70
7972;DHT22;4031;49.758;6.120;2023-05-18T09:30:28;25.40;62.80
7972;DHT22;4031;49.758;6.120;2023-05-18T09:32:54;25.10;63.20
7972;DHT22;4031;49.758;6.120;2023-05-18T09:35:20;25.30;62.10
7972;DHT22;4031;49.758;6.120;2023-05-18T09:37:47;25.10;60.90
7972;DHT22;4031;49.758;6.120;2023-05-18T09:40:12;24.80;61.00
7972;DHT22;4031;49.758;6.120;2023-05-18T09:42:42;24.70;59.60
7972;DHT22;4031;49.758;6.120;2023-05-18T09:45:21;24.50;61.80
7972;DHT22;4031;49.758;6.120;2023-05-18T09:47:52;24.60;63.50
7972;DHT22;4031;49.758;6.120;2023-05-18T09:50:19;24.90;62.60
7972;DHT22;4031;49.758;6.120;2023-05-18T09:52:45;25.30;61.20
7972;DHT22;4031;49.758;6.120;2023-05-18T09:55:18;25.50;64.30
7972;DHT22;4031;49.758;6.120;2023-05-18T09:57:48;25.10;62.00
7972;DHT22;4031;49.758;6.120;2023-05-18T10:00:17;24.60;60.40
7972;DHT22;4031;49.758;6.120;2023-05-18T10:02:45;24.50;60.20
7972;DHT22;4031;49.758;6.120;2023-05-18T10:05:28;25.10;61.20
7972;DHT22;4031;49.758;6.120;2023-05-18T10:07:59;25.00;60.10
7972;DHT22;4031;49.758;6.120;2023-05-18T10:10:27;25.00;59.00
7972;DHT22;4031;49.758;6.120;2023-05-18T10:12:54;25.10;58.90
7972;DHT22;4031;49.758;6.120;2023-05-18T10:15:23;25.10;57.90
7972;DHT22;4031;49.758;6.120;2023-05-18T10:17:50;25.80;59.10
7972;DHT22;4031;49.758;6.120;2023-05-18T10:20:18;25.60;62.20
7972;DHT22;4031;49.758;6.120;2023-05-18T10:22:48;25.40;59.20
7972;DHT22;4031;49.758;6.120;2023-05-18T10:25:19;25.00;59.60
7972;DHT22;4031;49.758;6.120;2023-05-18T10:27:49;24.30;61.00
7972;DHT22;4031;49.758;6.120;2023-05-18T10:30:17;23.50;59.50
7972;DHT22;4031;49.758;6.120;2023-05-18T10:32:44;23.40;62.40
7972;DHT22;4031;49.758;6.120;2023-05-18T10:35:10;23.80;61.40
7972;DHT22;4031;49.758;6.120;2023-05-18T10:37:39;23.70;64.40
7972;DHT22;4031;49.758;6.120;2023-05-18T10:40:09;23.70;58.50
7972;DHT22;4031;49.758;6.120;2023-05-18T10:42:36;23.90;59.60
7972;DHT22;4031;49.758;6.120;2023-05-18T10:45:02;23.60;56.20
7972;DHT22;4031;49.758;6.120;2023-05-18T10:47:32;24.10;58.50
7972;DHT22;4031;49.758;6.120;2023-05-18T10:50:00;24.00;60.30
7972;DHT22;4031;49.758;6.120;2023-05-18T10:52:29;23.90;58.60
7972;DHT22;4031;49.758;6.120;2023-05-18T10:54:57;24.10;59.20
7972;DHT22;4031;49.758;6.120;2023-05-18T10:57:45;24.00;59.60
7972;DHT22;4031;49.758;6.120;2023-05-18T11:00:14;24.10;56.70
7972;DHT22;4031;49.758;6.120;2023-05-18T11:02:40;24.30;57.50
7972;DHT22;4031;49.758;6.120;2023-05-18T11:05:07;23.80;56.20
7972;DHT22;4031;49.758;6.120;2023-05-18T11:07:34;23.70;57.90
7972;DHT22;4031;49.758;6.120;2023-05-18T11:10:02;23.50;57.10
7972;DHT22;4031;49.758;6.120;2023-05-18T11:12:32;23.40;56.00
7972;DHT22;4031;49.758;6.120;2023-05-18T11:15:02;23.60;55.80
7972;DHT22;4031;49.758;6.120;2023-05-18T11:17:30;24.00;57.60
7972;DHT22;4031;49.758;6.120;2023-05-18T11:22:53;24.00;58.00
7972;DHT22;4031;49.758;6.120;2023-05-18T11:27:55;23.80;58.70
7972;DHT22;4031;49.758;6.120;2023-05-18T11:30:45;23.70;56.80
7972;DHT22;4031;49.758;6.120;2023-05-18T11:33:26;23.80;57.20
7972;DHT22;4031;49.758;6.120;2023-05-18T11:39:04;24.20;59.20
7972;DHT22;4031;49.758;6.120;2023-05-18T11:49:26;24.60;60.80
7972;DHT22;4031;49.758;6.120;2023-05-18T11:52:12;24.60;58.50
7972;DHT22;4031;49.758;6.120;2023-05-18T11:55:05;24.20;60.00
7972;DHT22;4031;49.758;6.120;2023-05-18T11:59:59;23.60;57.60
7972;DHT22;4031;49.758;6.120;2023-05-18T12:02:26;23.20;56.80
7972;DHT22;4031;49.758;6.120;2023-05-18T12:04:57;23.00;57.80
7972;DHT22;4031;49.758;6.120;2023-05-18T12:07:28;23.20;58.70
7972;DHT22;4031;49.758;6.120;2023-05-18T12:10:10;23.20;58.70
7972;DHT22;4031;49.758;6.120;2023-05-18T12:12:36;23.10;56.20
7972;DHT22;4031;49.758;6.120;2023-05-18T12:15:05;23.00;57.00
7972;DHT22;4031;49.758;6.120;2023-05-18T12:17:39;23.00;57.90
7972;DHT22;4031;49.758;6.120;2023-05-18T12:20:15;23.50;62.00
7972;DHT22;4031;49.758;6.120;2023-05-18T12:25:18;23.40;56.20
7972;DHT22;4031;49.758;6.120;2023-05-18T12:27:45;23.30;55.30
7972;DHT22;4031;49.758;6.120;2023-05-18T12:30:26;23.60;55.80
7972;DHT22;4031;49.758;6.120;2023-05-18T12:33:02;23.40;55.80
7972;DHT22;4031;49.758;6.120;2023-05-18T12:35:28;23.40;55.70
7972;DHT22;4031;49.758;6.120;2023-05-18T12:37:56;23.60;56.60
7972;DHT22;4031;49.758;6.120;2023-05-18T12:40:25;23.20;56.20
7972;DHT22;4031;49.758;6.120;2023-05-18T12:42:51;23.20;57.40
7972;DHT22;4031;49.758;6.120;2023-05-18T12:45:20;23.40;56.70
7972;DHT22;4031;49.758;6.120;2023-05-18T12:47:47;23.70;59.70
7972;DHT22;4031;49.758;6.120;2023-05-18T12:50:18;24.30;57.20
7972;DHT22;4031;49.758;6.120;2023-05-18T12:52:44;24.60;55.20
7972;DHT22;4031;49.758;6.120;2023-05-18T12:55:16;24.70;54.30
7972;DHT22;4031;49.758;6.120;2023-05-18T12:57:56;25.10;55.90
7972;DHT22;4031;49.758;6.120;2023-05-18T13:00:49;25.00;53.70
7972;DHT22;4031;49.758;6.120;2023-05-18T13:03:17;24.90;57.20
7972;DHT22;4031;49.758;6.120;2023-05-18T13:06:04;25.10;56.20
7972;DHT22;4031;49.758;6.120;2023-05-18T13:08:32;25.00;56.50
7972;DHT22;4031;49.758;6.120;2023-05-18T13:11:06;25.10;56.10
7972;DHT22;4031;49.758;6.120;2023-05-18T13:13:33;25.20;54.90
7972;DHT22;4031;49.758;6.120;2023-05-18T13:15:59;25.40;57.50
7972;DHT22;4031;49.758;6.120;2023-05-18T13:18:28;25.00;55.80
7972;DHT22;4031;49.758;6.120;2023-05-18T13:20:55;25.10;55.50
7972;DHT22;4031;49.758;6.120;2023-05-18T13:23:22;25.30;53.30
7972;DHT22;4031;49.758;6.120;2023-05-18T13:25:51;25.30;55.00
7972;DHT22;4031;49.758;6.120;2023-05-18T13:28:18;25.00;57.20
7972;DHT22;4031;49.758;6.120;2023-05-18T13:30:45;25.10;55.50
7972;DHT22;4031;49.758;6.120;2023-05-18T13:33:13;25.40;53.40
7972;DHT22;4031;49.758;6.120;2023-05-18T13:35:41;25.70;54.70
7972;DHT22;4031;49.758;6.120;2023-05-18T13:38:08;26.20;54.20
7972;DHT22;4031;49.758;6.120;2023-05-18T13:40:38;26.30;54.40
7972;DHT22;4031;49.758;6.120;2023-05-18T13:43:04;26.20;54.70
7972;DHT22;4031;49.758;6.120;2023-05-18T13:45:30;25.70;52.70
7972;DHT22;4031;49.758;6.120;2023-05-18T13:47:57;25.40;53.20
7972;DHT22;4031;49.758;6.120;2023-05-18T13:50:23;25.60;53.10
7972;DHT22;4031;49.758;6.120;2023-05-18T13:52:51;25.70;54.90
7972;DHT22;4031;49.758;6.120;2023-05-18T13:55:17;25.50;53.20
7972;DHT22;4031;49.758;6.120;2023-05-18T13:57:46;24.90;53.70
7972;DHT22;4031;49.758;6.120;2023-05-18T14:00:12;25.10;54.30
7972;DHT22;4031;49.758;6.120;2023-05-18T14:02:42;25.00;54.10
7972;DHT22;4031;49.758;6.120;2023-05-18T14:05:09;25.10;54.60
7972;DHT22;4031;49.758;6.120;2023-05-18T14:07:36;24.90;52.20
7972;DHT22;4031;49.758;6.120;2023-05-18T14:10:03;25.20;55.30
7972;DHT22;4031;49.758;6.120;2023-05-18T14:12:29;25.20;52.40
7972;DHT22;4031;49.758;6.120;2023-05-18T14:14:55;25.40;53.50
7972;DHT22;4031;49.758;6.120;2023-05-18T14:17:21;25.10;51.50
7972;DHT22;4031;49.758;6.120;2023-05-18T14:19:46;25.00;53.00
7972;DHT22;4031;49.758;6.120;2023-05-18T14:22:12;25.30;54.30
7972;DHT22;4031;49.758;6.120;2023-05-18T14:24:38;25.30;53.00
7972;DHT22;4031;49.758;6.120;2023-05-18T14:27:04;25.10;52.00
7972;DHT22;4031;49.758;6.120;2023-05-18T14:29:29;25.10;52.40
7972;DHT22;4031;49.758;6.120;2023-05-18T14:31:56;24.70;51.80
7972;DHT22;4031;49.758;6.120;2023-05-18T14:34:22;24.80;51.40
7972;DHT22;4031;49.758;6.120;2023-05-18T14:36:48;25.00;52.60
7972;DHT22;4031;49.758;6.120;2023-05-18T14:39:14;24.80;51.30
7972;DHT22;4031;49.758;6.120;2023-05-18T14:41:40;25.00;52.70
7972;DHT22;4031;49.758;6.120;2023-05-18T14:44:05;25.10;53.30
7972;DHT22;4031;49.758;6.120;2023-05-18T14:46:34;25.40;52.50
7972;DHT22;4031;49.758;6.120;2023-05-18T14:49:01;25.50;52.30
7972;DHT22;4031;49.758;6.120;2023-05-18T14:51:27;25.20;52.80
7972;DHT22;4031;49.758;6.120;2023-05-18T14:53:52;24.90;50.70
7972;DHT22;4031;49.758;6.120;2023-05-18T14:56:18;24.70;52.60
7972;DHT22;4031;49.758;6.120;2023-05-18T14:58:44;25.00;53.70
7972;DHT22;4031;49.758;6.120;2023-05-18T15:01:10;25.10;54.30
7972;DHT22;4031;49.758;6.120;2023-05-18T15:03:35;24.70;51.80
7972;DHT22;4031;49.758;6.120;2023-05-18T15:06:01;24.10;52.50
7972;DHT22;4031;49.758;6.120;2023-05-18T15:08:27;23.70;53.00
7972;DHT22;4031;49.758;6.120;2023-05-18T15:10:52;23.50;53.40
7972;DHT22;4031;49.758;6.120;2023-05-18T15:13:18;23.20;51.90
7972;DHT22;4031;49.758;6.120;2023-05-18T15:15:44;23.30;53.00
7972;DHT22;4031;49.758;6.120;2023-05-18T15:18:10;23.20;52.80
7972;DHT22;4031;49.758;6.120;2023-05-18T15:20:37;23.10;53.60
7972;DHT22;4031;49.758;6.120;2023-05-18T15:23:04;23.00;54.10
7972;DHT22;4031;49.758;6.120;2023-05-18T15:25:30;22.70;53.90
7972;DHT22;4031;49.758;6.120;2023-05-18T15:27:57;22.40;55.20
7972;DHT22;4031;49.758;6.120;2023-05-18T15:30:22;22.00;53.90
7972;DHT22;4031;49.758;6.120;2023-05-18T15:32:48;22.00;53.20
7972;DHT22;4031;49.758;6.120;2023-05-18T15:35:14;21.80;54.10
7972;DHT22;4031;49.758;6.120;2023-05-18T15:37:42;21.70;55.10
7972;DHT22;4031;49.758;6.120;2023-05-18T15:40:08;21.60;53.80
7972;DHT22;4031;49.758;6.120;2023-05-18T15:42:34;21.50;54.70
7972;DHT22;4031;49.758;6.120;2023-05-18T15:45:00;21.20;53.40
7972;DHT22;4031;49.758;6.120;2023-05-18T15:47:27;21.20;52.40
7972;DHT22;4031;49.758;6.120;2023-05-18T15:49:53;21.30;53.90
7972;DHT22;4031;49.758;6.120;2023-05-18T15:52:18;21.50;54.60
7972;DHT22;4031;49.758;6.120;2023-05-18T15:54:44;21.50;55.20
7972;DHT22;4031;49.758;6.120;2023-05-18T15:57:10;21.60;54.30
7972;DHT22;4031;49.758;6.120;2023-05-18T15:59:36;21.50;52.00
7972;DHT22;4031;49.758;6.120;2023-05-18T16:02:01;21.20;53.10
7972;DHT22;4031;49.758;6.120;2023-05-18T16:04:27;21.10;52.80
7972;DHT22;4031;49.758;6.120;2023-05-18T16:06:53;20.90;52.60
7972;DHT22;4031;49.758;6.120;2023-05-18T16:09:19;20.70;53.20
7972;DHT22;4031;49.758;6.120;2023-05-18T16:11:45;20.40;52.40
7972;DHT22;4031;49.758;6.120;2023-05-18T16:14:10;20.00;54.60
7972;DHT22;4031;49.758;6.120;2023-05-18T16:16:36;19.70;54.10
7972;DHT22;4031;49.758;6.120;2023-05-18T16:19:02;19.60;54.70
7972;DHT22;4031;49.758;6.120;2023-05-18T16:21:29;19.30;55.30
7972;DHT22;4031;49.758;6.120;2023-05-18T16:23:56;19.30;56.50
7972;DHT22;4031;49.758;6.120;2023-05-18T16:26:21;19.20;57.30
7972;DHT22;4031;49.758;6.120;2023-05-18T16:28:47;19.00;55.90
7972;DHT22;4031;49.758;6.120;2023-05-18T16:31:13;19.00;58.60
7972;DHT22;4031;49.758;6.120;2023-05-18T16:33:38;18.90;58.70
7972;DHT22;4031;49.758;6.120;2023-05-18T16:36:05;19.00;55.60
7972;DHT22;4031;49.758;6.120;2023-05-18T16:38:32;18.90;58.30
7972;DHT22;4031;49.758;6.120;2023-05-18T16:41:03;18.90;57.80
7972;DHT22;4031;49.758;6.120;2023-05-18T16:43:29;18.90;58.40
7972;DHT22;4031;49.758;6.120;2023-05-18T16:45:55;18.90;59.30